SAS27A ENKB-ENBR
Flight info
| Callsign | SAS27A |
|---|---|
| Flight time | 0h 41m |
| Altitude | 32000 |
| Route | TUTOP DCT NIDGI |
| Aircraft | A320/M-SDE3FGHIRWY/LB1 |
Departure
| Time | 2026-05-04 11:59 |
|---|---|
| Airport | Kristiansund Airport, Kvernberget (ENKB) |
Arrival
| Time | 2026-05-04 12:40 |
|---|---|
| Airport | Bergen Airport, Flesland (ENBR) |
| Time | Latitude | Longitude | Altitude | Speed | Heading |
|---|---|---|---|---|---|
| 2026-05-04 11:59 | 63.09863 | 7.73782 | 2456 ft | 188 kts | 253° |
| 2026-05-04 11:59 | 63.09421 | 7.70864 | 2894 ft | 212 kts | 253° |
| 2026-05-04 11:59 | 63.08932 | 7.67679 | 3594 ft | 223 kts | 252° |
| 2026-05-04 12:00 | 63.08426 | 7.64411 | 4499 ft | 227 kts | 253° |
| 2026-05-04 12:00 | 63.07909 | 7.61084 | 5411 ft | 231 kts | 253° |
| 2026-05-04 12:00 | 63.07383 | 7.57691 | 6313 ft | 235 kts | 253° |
| 2026-05-04 12:00 | 63.06851 | 7.54254 | 7168 ft | 238 kts | 253° |
| 2026-05-04 12:01 | 63.06287 | 7.50788 | 7989 ft | 243 kts | 248° |
| 2026-05-04 12:01 | 63.05397 | 7.47567 | 8806 ft | 251 kts | 234° |
| 2026-05-04 12:02 | 62.89901 | 7.17244 | 14350 ft | 338 kts | 225° |
| 2026-05-04 12:03 | 62.86339 | 7.10386 | 15584 ft | 343 kts | 224° |
| 2026-05-04 12:03 | 62.82728 | 7.03469 | 16813 ft | 348 kts | 224° |
| 2026-05-04 12:03 | 62.79226 | 6.96791 | 19184 ft | 314 kts | 225° |
| 2026-05-04 12:03 | 62.76140 | 6.90951 | 21782 ft | 271 kts | 227° |
| 2026-05-04 12:04 | 62.73379 | 6.85707 | 23279 ft | 261 kts | 227° |
| 2026-05-04 12:04 | 62.70621 | 6.80430 | 24070 ft | 267 kts | 228° |
| 2026-05-04 12:04 | 62.67794 | 6.75057 | 24790 ft | 273 kts | 227° |
| 2026-05-04 12:04 | 62.65010 | 6.69794 | 25436 ft | 278 kts | 228° |
| 2026-05-04 12:05 | 62.63564 | 6.66980 | 25768 ft | 280 kts | 229° |
| 2026-05-04 12:05 | 62.62115 | 6.64107 | 26101 ft | 283 kts | 229° |
| 2026-05-04 12:05 | 62.60654 | 6.61208 | 26426 ft | 286 kts | 229° |
| 2026-05-04 12:05 | 62.59177 | 6.58285 | 26770 ft | 289 kts | 229° |
| 2026-05-04 12:06 | 62.57685 | 6.55339 | 27096 ft | 292 kts | 229° |
| 2026-05-04 12:06 | 62.56178 | 6.52373 | 27425 ft | 294 kts | 229° |
| 2026-05-04 12:06 | 62.54651 | 6.49382 | 27741 ft | 297 kts | 229° |
| 2026-05-04 12:06 | 62.53126 | 6.46405 | 28058 ft | 300 kts | 229° |
| 2026-05-04 12:07 | 62.51546 | 6.43332 | 28394 ft | 303 kts | 229° |
| 2026-05-04 12:07 | 62.49994 | 6.40317 | 28734 ft | 305 kts | 229° |
| 2026-05-04 12:07 | 62.48405 | 6.37233 | 29042 ft | 308 kts | 229° |
| 2026-05-04 12:07 | 62.46789 | 6.34103 | 29372 ft | 311 kts | 229° |
| 2026-05-04 12:08 | 62.45164 | 6.30955 | 29717 ft | 314 kts | 229° |
| 2026-05-04 12:08 | 62.43533 | 6.27801 | 29998 ft | 317 kts | 229° |
| 2026-05-04 12:08 | 62.41882 | 6.24607 | 30251 ft | 319 kts | 229° |
| 2026-05-04 12:08 | 62.40246 | 6.21446 | 30503 ft | 321 kts | 229° |
| 2026-05-04 12:09 | 62.38570 | 6.18214 | 30768 ft | 323 kts | 229° |
| 2026-05-04 12:09 | 62.36884 | 6.14970 | 31030 ft | 326 kts | 229° |
| 2026-05-04 12:09 | 62.35180 | 6.11704 | 31280 ft | 328 kts | 229° |
| 2026-05-04 12:09 | 62.33460 | 6.08416 | 31549 ft | 331 kts | 229° |
| 2026-05-04 12:10 | 62.31754 | 6.05159 | 31754 ft | 335 kts | 229° |
| 2026-05-04 12:10 | 62.29991 | 6.01785 | 31814 ft | 344 kts | 229° |
| 2026-05-04 12:10 | 62.28176 | 5.98312 | 31813 ft | 355 kts | 228° |
| 2026-05-04 12:10 | 62.26307 | 5.94733 | 31810 ft | 365 kts | 228° |
| 2026-05-04 12:11 | 62.22401 | 5.87296 | 31808 ft | 386 kts | 228° |
| 2026-05-04 12:11 | 62.18262 | 5.79486 | 31816 ft | 406 kts | 227° |
| 2026-05-04 12:12 | 62.13935 | 5.71344 | 31822 ft | 419 kts | 227° |
| 2026-05-04 12:12 | 62.09545 | 5.63126 | 31830 ft | 419 kts | 227° |
| 2026-05-04 12:14 | 61.89278 | 5.37746 | 31865 ft | 451 kts | 207° |
| 2026-05-04 12:15 | 61.83289 | 5.33556 | 31862 ft | 454 kts | 207° |
| 2026-05-04 12:15 | 61.77291 | 5.29380 | 31863 ft | 454 kts | 207° |
| 2026-05-04 12:16 | 61.71327 | 5.25231 | 31865 ft | 453 kts | 207° |
| 2026-05-04 12:16 | 61.65344 | 5.21077 | 31849 ft | 453 kts | 207° |
| 2026-05-04 12:17 | 61.59368 | 5.16963 | 31856 ft | 446 kts | 207° |
| 2026-05-04 12:17 | 61.53512 | 5.12973 | 31616 ft | 439 kts | 208° |
| 2026-05-04 12:18 | 61.50609 | 5.10985 | 31365 ft | 438 kts | 208° |
| 2026-05-04 12:18 | 61.47709 | 5.08996 | 31107 ft | 438 kts | 209° |
| 2026-05-04 12:18 | 61.44812 | 5.07012 | 30788 ft | 436 kts | 210° |
| 2026-05-04 12:18 | 61.42899 | 5.05705 | 30330 ft | 436 kts | 210° |
| 2026-05-04 12:19 | 61.40014 | 5.03732 | 29499 ft | 436 kts | 211° |
| 2026-05-04 12:19 | 61.37115 | 5.01753 | 28681 ft | 435 kts | 211° |
| 2026-05-04 12:19 | 61.34251 | 4.99823 | 28079 ft | 428 kts | 210° |
| 2026-05-04 12:19 | 61.31465 | 4.97962 | 27457 ft | 423 kts | 210° |
| 2026-05-04 12:20 | 61.28680 | 4.96103 | 26854 ft | 417 kts | 211° |
| 2026-05-04 12:20 | 61.25925 | 4.94256 | 26260 ft | 412 kts | 211° |
| 2026-05-04 12:20 | 61.23213 | 4.92431 | 25687 ft | 407 kts | 211° |
| 2026-05-04 12:20 | 61.20530 | 4.90628 | 25126 ft | 402 kts | 211° |
| 2026-05-04 12:21 | 61.17915 | 4.88874 | 24592 ft | 398 kts | 211° |
| 2026-05-04 12:21 | 61.15295 | 4.87122 | 24057 ft | 394 kts | 211° |
| 2026-05-04 12:21 | 61.12699 | 4.85385 | 23539 ft | 390 kts | 211° |
| 2026-05-04 12:21 | 61.10130 | 4.83664 | 23005 ft | 385 kts | 211° |
| 2026-05-04 12:22 | 61.07610 | 4.82035 | 22573 ft | 376 kts | 208° |
| 2026-05-04 12:22 | 61.05018 | 4.81006 | 21673 ft | 382 kts | 199° |
| 2026-05-04 12:22 | 61.02352 | 4.80732 | 20825 ft | 382 kts | 194° |
| 2026-05-04 12:22 | 60.99712 | 4.80601 | 20000 ft | 375 kts | 194° |
| 2026-05-04 12:23 | 60.97130 | 4.80471 | 19200 ft | 368 kts | 193° |
| 2026-05-04 12:23 | 60.94596 | 4.80336 | 18417 ft | 360 kts | 193° |
| 2026-05-04 12:23 | 60.92118 | 4.80197 | 17536 ft | 353 kts | 193° |
| 2026-05-04 12:23 | 60.89683 | 4.80051 | 16598 ft | 346 kts | 192° |
| 2026-05-04 12:24 | 60.87324 | 4.79904 | 15674 ft | 341 kts | 191° |
| 2026-05-04 12:24 | 60.84965 | 4.79755 | 14774 ft | 336 kts | 191° |
| 2026-05-04 12:24 | 60.82640 | 4.79615 | 13876 ft | 332 kts | 190° |
| 2026-05-04 12:24 | 60.80346 | 4.79476 | 12930 ft | 328 kts | 189° |
| 2026-05-04 12:25 | 60.78071 | 4.79406 | 11969 ft | 327 kts | 183° |
| 2026-05-04 12:25 | 60.75815 | 4.80289 | 11068 ft | 330 kts | 173° |
| 2026-05-04 12:25 | 60.73603 | 4.81436 | 10256 ft | 325 kts | 172° |
| 2026-05-04 12:25 | 60.71482 | 4.82574 | 9975 ft | 304 kts | 172° |
| 2026-05-04 12:26 | 60.69521 | 4.83643 | 9829 ft | 285 kts | 173° |
| 2026-05-04 12:26 | 60.67612 | 4.84667 | 9702 ft | 282 kts | 173° |
| 2026-05-04 12:26 | 60.65735 | 4.85655 | 9575 ft | 281 kts | 173° |
| 2026-05-04 12:26 | 60.63840 | 4.86647 | 9418 ft | 281 kts | 173° |
| 2026-05-04 12:27 | 60.61950 | 4.87639 | 9284 ft | 280 kts | 173° |
| 2026-05-04 12:27 | 60.60052 | 4.88636 | 9138 ft | 280 kts | 173° |
| 2026-05-04 12:27 | 60.58166 | 4.89624 | 8996 ft | 279 kts | 173° |
| 2026-05-04 12:27 | 60.56280 | 4.90605 | 8857 ft | 279 kts | 173° |
| 2026-05-04 12:28 | 60.54402 | 4.91579 | 8717 ft | 278 kts | 172° |
| 2026-05-04 12:28 | 60.52551 | 4.92543 | 8580 ft | 278 kts | 172° |
| 2026-05-04 12:28 | 60.50676 | 4.93525 | 8441 ft | 278 kts | 172° |
| 2026-05-04 12:28 | 60.48803 | 4.94507 | 8310 ft | 277 kts | 172° |
| 2026-05-04 12:29 | 60.46935 | 4.95484 | 8163 ft | 276 kts | 172° |
| 2026-05-04 12:29 | 60.45068 | 4.96453 | 7844 ft | 276 kts | 172° |
| 2026-05-04 12:29 | 60.43209 | 4.97418 | 7524 ft | 274 kts | 171° |
| 2026-05-04 12:29 | 60.41360 | 4.98375 | 7198 ft | 273 kts | 171° |
| 2026-05-04 12:30 | 60.39533 | 4.99316 | 6838 ft | 275 kts | 171° |
| 2026-05-04 12:30 | 60.37674 | 5.00272 | 6481 ft | 276 kts | 171° |
| 2026-05-04 12:30 | 60.35816 | 5.01229 | 6220 ft | 273 kts | 170° |
| 2026-05-04 12:30 | 60.33983 | 5.02187 | 6081 ft | 267 kts | 170° |
| 2026-05-04 12:31 | 60.32231 | 5.03106 | 5939 ft | 260 kts | 170° |
| 2026-05-04 12:31 | 60.30504 | 5.04003 | 5719 ft | 255 kts | 170° |
| 2026-05-04 12:31 | 60.28776 | 5.04891 | 5397 ft | 256 kts | 169° |
| 2026-05-04 12:31 | 60.27044 | 5.05777 | 5087 ft | 256 kts | 169° |
| 2026-05-04 12:32 | 60.25314 | 5.06662 | 4765 ft | 256 kts | 168° |
| 2026-05-04 12:32 | 60.21855 | 5.08443 | 4124 ft | 257 kts | 168° |
| 2026-05-04 12:32 | 60.20136 | 5.09329 | 3995 ft | 251 kts | 168° |
| 2026-05-04 12:33 | 60.18514 | 5.10165 | 3999 ft | 237 kts | 168° |
| 2026-05-04 12:33 | 60.16970 | 5.10958 | 3997 ft | 220 kts | 168° |
| 2026-05-04 12:33 | 60.15529 | 5.11699 | 4004 ft | 209 kts | 168° |
| 2026-05-04 12:33 | 60.14120 | 5.12420 | 4008 ft | 208 kts | 168° |
| 2026-05-04 12:34 | 60.12717 | 5.13134 | 4010 ft | 208 kts | 169° |
| 2026-05-04 12:34 | 60.11341 | 5.13872 | 4012 ft | 204 kts | 162° |
| 2026-05-04 12:34 | 60.10164 | 5.15333 | 3998 ft | 196 kts | 138° |
| 2026-05-04 12:34 | 60.09390 | 5.17552 | 4005 ft | 197 kts | 115° |
| 2026-05-04 12:35 | 60.09093 | 5.20254 | 3903 ft | 201 kts | 91° |
| 2026-05-04 12:35 | 60.09337 | 5.22950 | 3792 ft | 198 kts | 67° |
| 2026-05-04 12:35 | 60.10084 | 5.25266 | 3722 ft | 199 kts | 43° |
| 2026-05-04 12:35 | 60.11210 | 5.26817 | 3591 ft | 196 kts | 19° |
| 2026-05-04 12:36 | 60.12507 | 5.27350 | 3389 ft | 191 kts | 355° |
| 2026-05-04 12:36 | 60.13791 | 5.27010 | 3165 ft | 181 kts | 347° |
| 2026-05-04 12:36 | 60.14995 | 5.26609 | 2967 ft | 171 kts | 348° |
| 2026-05-04 12:36 | 60.16124 | 5.26233 | 2708 ft | 154 kts | 348° |
| 2026-05-04 12:37 | 60.17143 | 5.25894 | 2489 ft | 143 kts | 348° |
| 2026-05-04 12:37 | 60.18109 | 5.25571 | 2292 ft | 138 kts | 348° |
| 2026-05-04 12:37 | 60.19050 | 5.25257 | 2099 ft | 136 kts | 349° |
| 2026-05-04 12:37 | 60.19966 | 5.24951 | 1911 ft | 134 kts | 349° |
| 2026-05-04 12:38 | 60.20883 | 5.24645 | 1730 ft | 132 kts | 349° |
| 2026-05-04 12:38 | 60.21789 | 5.24342 | 1536 ft | 132 kts | 349° |
| 2026-05-04 12:38 | 60.22696 | 5.24039 | 1348 ft | 131 kts | 350° |
| 2026-05-04 12:38 | 60.23597 | 5.23738 | 1148 ft | 131 kts | 349° |
| 2026-05-04 12:39 | 60.24492 | 5.23438 | 961 ft | 130 kts | 349° |
| 2026-05-04 12:39 | 60.25389 | 5.23138 | 775 ft | 130 kts | 350° |
| 2026-05-04 12:39 | 60.26274 | 5.22842 | 598 ft | 130 kts | 349° |
| 2026-05-04 12:39 | 60.27175 | 5.22540 | 417 ft | 131 kts | 348° |
| 2026-05-04 12:40 | 60.28076 | 5.22238 | 246 ft | 131 kts | 348° |
| 2026-05-04 12:40 | 60.28928 | 5.21954 | 164 ft | 106 kts | 351° |
| 2026-05-04 12:40 | 60.29365 | 5.21804 | 155 ft | 37 kts | 351° |
| 2026-05-04 12:40 | 60.29602 | 5.21726 | 147 ft | 30 kts | 351° |
| 2026-05-04 12:41 | 60.29711 | 5.21811 | 146 ft | 16 kts | 72° |
| 2026-05-04 12:41 | 60.29695 | 5.22004 | 150 ft | 15 kts | 148° |
| 2026-05-04 12:41 | 60.29592 | 5.22052 | 153 ft | 15 kts | 170° |
| 2026-05-04 12:41 | 60.29487 | 5.22087 | 157 ft | 16 kts | 171° |
| 2026-05-04 12:42 | 60.29368 | 5.22130 | 161 ft | 20 kts | 170° |
| 2026-05-04 12:42 | 60.29219 | 5.22179 | 169 ft | 24 kts | 170° |
| 2026-05-04 12:42 | 60.29095 | 5.22239 | 175 ft | 10 kts | 137° |
| 2026-05-04 12:42 | 60.29062 | 5.22357 | 177 ft | 10 kts | 130° |
| 2026-05-04 12:43 | 60.29007 | 5.22488 | 175 ft | 14 kts | 132° |
| 2026-05-04 12:43 | 60.28966 | 5.22577 | 175 ft | 0 kts | 132° |